sensor_id;sensor_type;location;lat;lon;timestamp;temperature;humidity
7002;DHT22;3541;53.230;10.518;2023-06-26T00:00:28;24.10;99.90
7002;DHT22;3541;53.230;10.518;2023-06-26T00:02:54;24.20;99.90
7002;DHT22;3541;53.230;10.518;2023-06-26T00:05:21;24.20;99.90
7002;DHT22;3541;53.230;10.518;2023-06-26T00:07:47;24.20;99.90
7002;DHT22;3541;53.230;10.518;2023-06-26T00:10:14;24.20;99.90
7002;DHT22;3541;53.230;10.518;2023-06-26T00:12:41;24.20;99.90
7002;DHT22;3541;53.230;10.518;2023-06-26T00:15:09;24.20;99.90
7002;DHT22;3541;53.230;10.518;2023-06-26T00:17:37;24.20;99.90
7002;DHT22;3541;53.230;10.518;2023-06-26T00:20:04;24.20;99.90
7002;DHT22;3541;53.230;10.518;2023-06-26T00:22:32;24.20;99.90
7002;DHT22;3541;53.230;10.518;2023-06-26T00:24:58;24.20;99.90
7002;DHT22;3541;53.230;10.518;2023-06-26T00:27:26;24.10;99.90
7002;DHT22;3541;53.230;10.518;2023-06-26T00:29:53;24.10;99.90
7002;DHT22;3541;53.230;10.518;2023-06-26T00:32:21;24.00;99.90
7002;DHT22;3541;53.230;10.518;2023-06-26T00:34:48;24.00;99.90
7002;DHT22;3541;53.230;10.518;2023-06-26T00:37:14;23.90;99.90
7002;DHT22;3541;53.230;10.518;2023-06-26T00:39:41;23.90;99.90
7002;DHT22;3541;53.230;10.518;2023-06-26T00:42:08;23.90;99.90
7002;DHT22;3541;53.230;10.518;2023-06-26T00:44:35;23.90;99.90
7002;DHT22;3541;53.230;10.518;2023-06-26T00:47:01;23.90;99.90
7002;DHT22;3541;53.230;10.518;2023-06-26T00:49:29;23.90;99.90
7002;DHT22;3541;53.230;10.518;2023-06-26T00:51:56;23.80;99.90
7002;DHT22;3541;53.230;10.518;2023-06-26T00:54:23;23.80;99.90
7002;DHT22;3541;53.230;10.518;2023-06-26T00:56:50;23.80;99.90
7002;DHT22;3541;53.230;10.518;2023-06-26T00:59:17;23.80;99.90
7002;DHT22;3541;53.230;10.518;2023-06-26T01:01:44;23.80;99.90
7002;DHT22;3541;53.230;10.518;2023-06-26T01:04:10;23.80;99.90
7002;DHT22;3541;53.230;10.518;2023-06-26T01:06:44;23.90;99.90
7002;DHT22;3541;53.230;10.518;2023-06-26T01:09:15;23.80;99.90
7002;DHT22;3541;53.230;10.518;2023-06-26T01:11:42;23.80;99.90
7002;DHT22;3541;53.230;10.518;2023-06-26T01:14:08;23.80;99.90
7002;DHT22;3541;53.230;10.518;2023-06-26T01:16:35;23.70;99.90
7002;DHT22;3541;53.230;10.518;2023-06-26T01:19:04;23.70;99.90
7002;DHT22;3541;53.230;10.518;2023-06-26T01:21:34;23.60;99.90
7002;DHT22;3541;53.230;10.518;2023-06-26T01:24:07;23.60;99.90
7002;DHT22;3541;53.230;10.518;2023-06-26T01:26:38;23.60;99.90
7002;DHT22;3541;53.230;10.518;2023-06-26T01:29:07;23.60;99.90
7002;DHT22;3541;53.230;10.518;2023-06-26T01:31:36;23.60;99.90
7002;DHT22;3541;53.230;10.518;2023-06-26T01:34:03;23.60;99.90
7002;DHT22;3541;53.230;10.518;2023-06-26T01:36:30;23.60;99.90
7002;DHT22;3541;53.230;10.518;2023-06-26T01:38:57;23.50;99.90
7002;DHT22;3541;53.230;10.518;2023-06-26T01:41:23;23.50;99.90
7002;DHT22;3541;53.230;10.518;2023-06-26T01:44:04;23.50;99.90
7002;DHT22;3541;53.230;10.518;2023-06-26T01:46:38;23.50;99.90
7002;DHT22;3541;53.230;10.518;2023-06-26T01:49:09;23.50;99.90
7002;DHT22;3541;53.230;10.518;2023-06-26T01:51:42;23.50;99.90
7002;DHT22;3541;53.230;10.518;2023-06-26T01:54:13;23.40;99.90
7002;DHT22;3541;53.230;10.518;2023-06-26T01:56:40;23.40;99.90
7002;DHT22;3541;53.230;10.518;2023-06-26T01:59:11;23.30;99.90
7002;DHT22;3541;53.230;10.518;2023-06-26T02:01:39;23.30;99.90
7002;DHT22;3541;53.230;10.518;2023-06-26T02:04:06;23.30;99.90
7002;DHT22;3541;53.230;10.518;2023-06-26T02:06:32;23.30;99.90
7002;DHT22;3541;53.230;10.518;2023-06-26T02:08:59;23.30;99.90
7002;DHT22;3541;53.230;10.518;2023-06-26T02:11:25;23.30;99.90
7002;DHT22;3541;53.230;10.518;2023-06-26T02:13:52;23.20;99.90
7002;DHT22;3541;53.230;10.518;2023-06-26T02:16:20;23.20;99.90
7002;DHT22;3541;53.230;10.518;2023-06-26T02:18:47;23.20;99.90
7002;DHT22;3541;53.230;10.518;2023-06-26T02:21:13;23.20;99.90
7002;DHT22;3541;53.230;10.518;2023-06-26T02:23:40;23.20;99.90
7002;DHT22;3541;53.230;10.518;2023-06-26T02:26:06;23.20;99.90
7002;DHT22;3541;53.230;10.518;2023-06-26T02:28:33;23.20;99.90
7002;DHT22;3541;53.230;10.518;2023-06-26T02:31:00;23.20;99.90
7002;DHT22;3541;53.230;10.518;2023-06-26T02:33:28;23.10;99.90
7002;DHT22;3541;53.230;10.518;2023-06-26T02:35:55;23.10;99.90
7002;DHT22;3541;53.230;10.518;2023-06-26T02:38:21;23.10;99.90
7002;DHT22;3541;53.230;10.518;2023-06-26T02:40:48;23.10;99.90
7002;DHT22;3541;53.230;10.518;2023-06-26T02:43:14;23.10;99.90
7002;DHT22;3541;53.230;10.518;2023-06-26T02:45:41;23.00;99.90
7002;DHT22;3541;53.230;10.518;2023-06-26T02:48:08;23.00;99.90
7002;DHT22;3541;53.230;10.518;2023-06-26T02:50:36;22.90;99.90
7002;DHT22;3541;53.230;10.518;2023-06-26T02:53:02;22.90;99.90
7002;DHT22;3541;53.230;10.518;2023-06-26T02:55:29;22.90;99.90
7002;DHT22;3541;53.230;10.518;2023-06-26T02:57:55;22.90;99.90
7002;DHT22;3541;53.230;10.518;2023-06-26T03:00:22;22.90;99.90
7002;DHT22;3541;53.230;10.518;2023-06-26T03:02:49;22.90;99.90
7002;DHT22;3541;53.230;10.518;2023-06-26T03:05:15;22.80;99.90
7002;DHT22;3541;53.230;10.518;2023-06-26T03:07:43;22.90;99.90
7002;DHT22;3541;53.230;10.518;2023-06-26T03:10:10;22.70;99.90
7002;DHT22;3541;53.230;10.518;2023-06-26T03:12:36;22.80;99.90
7002;DHT22;3541;53.230;10.518;2023-06-26T03:15:04;22.80;99.90
7002;DHT22;3541;53.230;10.518;2023-06-26T03:17:30;22.80;99.90
7002;DHT22;3541;53.230;10.518;2023-06-26T03:19:57;22.80;99.90
7002;DHT22;3541;53.230;10.518;2023-06-26T03:22:23;22.80;99.90
7002;DHT22;3541;53.230;10.518;2023-06-26T03:24:51;22.70;99.90
7002;DHT22;3541;53.230;10.518;2023-06-26T03:27:18;22.70;99.90
7002;DHT22;3541;53.230;10.518;2023-06-26T03:29:44;22.60;99.90
7002;DHT22;3541;53.230;10.518;2023-06-26T03:32:11;22.60;99.90
7002;DHT22;3541;53.230;10.518;2023-06-26T03:34:38;22.60;99.90
7002;DHT22;3541;53.230;10.518;2023-06-26T03:37:05;22.60;99.90
7002;DHT22;3541;53.230;10.518;2023-06-26T03:39:32;22.60;99.90
7002;DHT22;3541;53.230;10.518;2023-06-26T03:41:59;22.60;99.90
7002;DHT22;3541;53.230;10.518;2023-06-26T03:44:26;22.60;99.90
7002;DHT22;3541;53.230;10.518;2023-06-26T03:46:53;22.60;99.90
7002;DHT22;3541;53.230;10.518;2023-06-26T03:49:20;22.50;99.90
7002;DHT22;3541;53.230;10.518;2023-06-26T03:51:46;22.50;99.90
7002;DHT22;3541;53.230;10.518;2023-06-26T03:54:13;22.50;99.90
7002;DHT22;3541;53.230;10.518;2023-06-26T03:56:40;22.50;99.90
7002;DHT22;3541;53.230;10.518;2023-06-26T03:59:08;22.50;99.90
7002;DHT22;3541;53.230;10.518;2023-06-26T04:01:35;22.40;99.90
7002;DHT22;3541;53.230;10.518;2023-06-26T04:04:02;22.40;99.90
7002;DHT22;3541;53.230;10.518;2023-06-26T04:06:29;22.50;99.90
7002;DHT22;3541;53.230;10.518;2023-06-26T04:08:57;22.50;99.90
7002;DHT22;3541;53.230;10.518;2023-06-26T04:11:23;22.50;99.90
7002;DHT22;3541;53.230;10.518;2023-06-26T04:13:51;22.50;99.90
7002;DHT22;3541;53.230;10.518;2023-06-26T04:16:19;22.50;99.90
7002;DHT22;3541;53.230;10.518;2023-06-26T04:18:46;22.50;99.90
7002;DHT22;3541;53.230;10.518;2023-06-26T04:21:13;22.60;99.90
7002;DHT22;3541;53.230;10.518;2023-06-26T04:23:40;22.50;99.90
7002;DHT22;3541;53.230;10.518;2023-06-26T04:26:07;22.50;99.90
7002;DHT22;3541;53.230;10.518;2023-06-26T04:28:38;22.60;99.90
7002;DHT22;3541;53.230;10.518;2023-06-26T04:31:05;22.60;99.90
7002;DHT22;3541;53.230;10.518;2023-06-26T04:33:33;22.60;99.90
7002;DHT22;3541;53.230;10.518;2023-06-26T04:36:01;22.50;99.90
7002;DHT22;3541;53.230;10.518;2023-06-26T04:38:29;22.60;99.90
7002;DHT22;3541;53.230;10.518;2023-06-26T04:40:57;22.60;99.90
7002;DHT22;3541;53.230;10.518;2023-06-26T04:43:23;22.50;99.90
7002;DHT22;3541;53.230;10.518;2023-06-26T04:45:50;22.60;99.90
7002;DHT22;3541;53.230;10.518;2023-06-26T04:48:16;22.60;99.90
7002;DHT22;3541;53.230;10.518;2023-06-26T04:50:45;22.60;99.90
7002;DHT22;3541;53.230;10.518;2023-06-26T04:53:19;22.60;99.90
7002;DHT22;3541;53.230;10.518;2023-06-26T04:55:46;22.60;99.90
7002;DHT22;3541;53.230;10.518;2023-06-26T04:58:12;22.60;99.90
7002;DHT22;3541;53.230;10.518;2023-06-26T05:00:39;22.60;99.90
7002;DHT22;3541;53.230;10.518;2023-06-26T05:03:08;22.60;99.90
7002;DHT22;3541;53.230;10.518;2023-06-26T05:05:34;22.60;99.90
7002;DHT22;3541;53.230;10.518;2023-06-26T05:08:13;22.60;99.90
7002;DHT22;3541;53.230;10.518;2023-06-26T05:10:40;22.60;99.90
7002;DHT22;3541;53.230;10.518;2023-06-26T05:13:07;22.70;99.90
7002;DHT22;3541;53.230;10.518;2023-06-26T05:15:34;22.70;99.90
7002;DHT22;3541;53.230;10.518;2023-06-26T05:18:00;22.70;99.90
7002;DHT22;3541;53.230;10.518;2023-06-26T05:20:27;22.80;99.90
7002;DHT22;3541;53.230;10.518;2023-06-26T05:22:54;22.80;99.90
7002;DHT22;3541;53.230;10.518;2023-06-26T05:25:22;22.80;99.90
7002;DHT22;3541;53.230;10.518;2023-06-26T05:27:50;22.80;99.90
7002;DHT22;3541;53.230;10.518;2023-06-26T05:30:18;22.90;99.90
7002;DHT22;3541;53.230;10.518;2023-06-26T05:32:46;22.90;99.90
7002;DHT22;3541;53.230;10.518;2023-06-26T05:35:13;23.00;99.90
7002;DHT22;3541;53.230;10.518;2023-06-26T05:37:41;23.00;99.90
7002;DHT22;3541;53.230;10.518;2023-06-26T05:40:09;23.00;99.90
7002;DHT22;3541;53.230;10.518;2023-06-26T05:42:37;23.00;99.90
7002;DHT22;3541;53.230;10.518;2023-06-26T05:45:05;23.10;99.90
7002;DHT22;3541;53.230;10.518;2023-06-26T05:47:32;23.10;99.90
7002;DHT22;3541;53.230;10.518;2023-06-26T05:49:59;23.10;99.90
7002;DHT22;3541;53.230;10.518;2023-06-26T05:52:26;23.20;99.90
7002;DHT22;3541;53.230;10.518;2023-06-26T05:54:53;23.30;99.90
7002;DHT22;3541;53.230;10.518;2023-06-26T05:57:20;23.30;99.90
7002;DHT22;3541;53.230;10.518;2023-06-26T05:59:49;23.30;99.90
7002;DHT22;3541;53.230;10.518;2023-06-26T06:02:15;23.30;99.90
7002;DHT22;3541;53.230;10.518;2023-06-26T06:04:42;23.30;99.90
7002;DHT22;3541;53.230;10.518;2023-06-26T06:07:08;23.30;99.90
7002;DHT22;3541;53.230;10.518;2023-06-26T06:09:35;23.40;99.90
7002;DHT22;3541;53.230;10.518;2023-06-26T06:12:03;23.40;99.90
7002;DHT22;3541;53.230;10.518;2023-06-26T06:14:31;23.50;99.90
7002;DHT22;3541;53.230;10.518;2023-06-26T06:16:59;23.50;99.90
7002;DHT22;3541;53.230;10.518;2023-06-26T06:19:25;23.60;99.90
7002;DHT22;3541;53.230;10.518;2023-06-26T06:21:52;23.60;99.90
7002;DHT22;3541;53.230;10.518;2023-06-26T06:24:19;23.60;99.90
7002;DHT22;3541;53.230;10.518;2023-06-26T06:26:46;23.60;99.90
7002;DHT22;3541;53.230;10.518;2023-06-26T06:29:12;23.70;99.90
7002;DHT22;3541;53.230;10.518;2023-06-26T06:31:39;23.70;99.90
7002;DHT22;3541;53.230;10.518;2023-06-26T06:34:07;23.70;99.90
7002;DHT22;3541;53.230;10.518;2023-06-26T06:36:33;23.80;99.90
7002;DHT22;3541;53.230;10.518;2023-06-26T06:39:00;23.80;99.90
7002;DHT22;3541;53.230;10.518;2023-06-26T06:41:27;23.80;99.90
7002;DHT22;3541;53.230;10.518;2023-06-26T06:43:53;23.80;99.90
7002;DHT22;3541;53.230;10.518;2023-06-26T06:46:20;23.90;99.90
7002;DHT22;3541;53.230;10.518;2023-06-26T06:48:47;24.00;99.90
7002;DHT22;3541;53.230;10.518;2023-06-26T06:51:14;24.00;99.90
7002;DHT22;3541;53.230;10.518;2023-06-26T06:53:41;24.00;99.90
7002;DHT22;3541;53.230;10.518;2023-06-26T06:56:08;24.00;99.90
7002;DHT22;3541;53.230;10.518;2023-06-26T06:58:34;24.00;99.90
7002;DHT22;3541;53.230;10.518;2023-06-26T07:01:01;24.00;99.90
7002;DHT22;3541;53.230;10.518;2023-06-26T07:03:29;24.00;99.90
7002;DHT22;3541;53.230;10.518;2023-06-26T07:05:56;24.10;99.90
7002;DHT22;3541;53.230;10.518;2023-06-26T07:08:24;24.10;99.90
7002;DHT22;3541;53.230;10.518;2023-06-26T07:10:50;24.20;99.90
7002;DHT22;3541;53.230;10.518;2023-06-26T07:13:17;24.20;99.90
7002;DHT22;3541;53.230;10.518;2023-06-26T07:15:45;24.20;99.90
7002;DHT22;3541;53.230;10.518;2023-06-26T07:18:13;24.30;99.90
7002;DHT22;3541;53.230;10.518;2023-06-26T07:20:39;24.30;99.90
7002;DHT22;3541;53.230;10.518;2023-06-26T07:23:06;24.30;99.90
7002;DHT22;3541;53.230;10.518;2023-06-26T07:25:34;24.40;99.90
7002;DHT22;3541;53.230;10.518;2023-06-26T07:28:01;24.50;99.90
7002;DHT22;3541;53.230;10.518;2023-06-26T07:30:28;24.50;99.90
7002;DHT22;3541;53.230;10.518;2023-06-26T07:32:54;24.60;99.90
7002;DHT22;3541;53.230;10.518;2023-06-26T07:35:21;24.60;99.90
7002;DHT22;3541;53.230;10.518;2023-06-26T07:37:48;24.70;99.90
7002;DHT22;3541;53.230;10.518;2023-06-26T07:40:15;24.80;99.90
7002;DHT22;3541;53.230;10.518;2023-06-26T07:42:44;24.80;99.90
7002;DHT22;3541;53.230;10.518;2023-06-26T07:45:11;24.80;99.90
7002;DHT22;3541;53.230;10.518;2023-06-26T07:47:38;24.90;99.90
7002;DHT22;3541;53.230;10.518;2023-06-26T07:50:06;25.00;99.90
7002;DHT22;3541;53.230;10.518;2023-06-26T07:52:32;25.00;99.90
7002;DHT22;3541;53.230;10.518;2023-06-26T07:54:59;25.10;99.90
7002;DHT22;3541;53.230;10.518;2023-06-26T07:57:25;25.10;99.90
7002;DHT22;3541;53.230;10.518;2023-06-26T07:59:53;25.20;99.90
7002;DHT22;3541;53.230;10.518;2023-06-26T08:02:22;25.20;99.90
7002;DHT22;3541;53.230;10.518;2023-06-26T08:04:48;25.20;99.90
7002;DHT22;3541;53.230;10.518;2023-06-26T08:07:15;25.10;99.90
7002;DHT22;3541;53.230;10.518;2023-06-26T08:09:42;25.10;99.90
7002;DHT22;3541;53.230;10.518;2023-06-26T08:12:09;25.20;99.90
7002;DHT22;3541;53.230;10.518;2023-06-26T08:14:35;25.30;99.90
7002;DHT22;3541;53.230;10.518;2023-06-26T08:17:03;25.30;99.90
7002;DHT22;3541;53.230;10.518;2023-06-26T08:19:30;25.40;99.90
7002;DHT22;3541;53.230;10.518;2023-06-26T08:21:57;25.40;99.90
7002;DHT22;3541;53.230;10.518;2023-06-26T08:24:23;25.40;99.90
7002;DHT22;3541;53.230;10.518;2023-06-26T08:26:50;25.40;99.90
7002;DHT22;3541;53.230;10.518;2023-06-26T08:29:16;25.50;99.90
7002;DHT22;3541;53.230;10.518;2023-06-26T08:31:43;25.50;99.90
7002;DHT22;3541;53.230;10.518;2023-06-26T08:34:11;25.50;99.90
7002;DHT22;3541;53.230;10.518;2023-06-26T08:36:38;25.60;99.90
7002;DHT22;3541;53.230;10.518;2023-06-26T08:39:05;25.70;99.90
7002;DHT22;3541;53.230;10.518;2023-06-26T08:41:31;25.80;99.90
7002;DHT22;3541;53.230;10.518;2023-06-26T08:43:58;26.00;99.90
7002;DHT22;3541;53.230;10.518;2023-06-26T08:46:25;26.00;99.90
7002;DHT22;3541;53.230;10.518;2023-06-26T08:48:55;26.00;99.90
7002;DHT22;3541;53.230;10.518;2023-06-26T08:51:25;26.10;99.90
7002;DHT22;3541;53.230;10.518;2023-06-26T08:53:56;26.20;99.90
7002;DHT22;3541;53.230;10.518;2023-06-26T08:56:25;26.30;99.90
7002;DHT22;3541;53.230;10.518;2023-06-26T08:58:54;26.40;99.90
7002;DHT22;3541;53.230;10.518;2023-06-26T09:01:21;26.50;99.90
7002;DHT22;3541;53.230;10.518;2023-06-26T09:03:49;26.50;99.90
7002;DHT22;3541;53.230;10.518;2023-06-26T09:06:16;26.50;99.90
7002;DHT22;3541;53.230;10.518;2023-06-26T09:08:45;26.50;99.90
7002;DHT22;3541;53.230;10.518;2023-06-26T09:11:12;26.50;99.90
7002;DHT22;3541;53.230;10.518;2023-06-26T09:13:39;26.70;99.90
7002;DHT22;3541;53.230;10.518;2023-06-26T09:16:07;26.70;99.90
7002;DHT22;3541;53.230;10.518;2023-06-26T09:18:34;26.70;99.90
7002;DHT22;3541;53.230;10.518;2023-06-26T09:21:06;26.70;99.90
7002;DHT22;3541;53.230;10.518;2023-06-26T09:23:34;26.80;99.90
7002;DHT22;3541;53.230;10.518;2023-06-26T09:26:03;26.90;99.90
7002;DHT22;3541;53.230;10.518;2023-06-26T09:28:30;27.00;99.90
7002;DHT22;3541;53.230;10.518;2023-06-26T09:31:01;27.20;99.90
7002;DHT22;3541;53.230;10.518;2023-06-26T09:33:33;27.30;99.90
7002;DHT22;3541;53.230;10.518;2023-06-26T09:36:05;27.20;99.90
7002;DHT22;3541;53.230;10.518;2023-06-26T09:38:32;27.10;99.90
7002;DHT22;3541;53.230;10.518;2023-06-26T09:40:59;27.10;99.90
7002;DHT22;3541;53.230;10.518;2023-06-26T09:43:27;27.20;99.90
7002;DHT22;3541;53.230;10.518;2023-06-26T09:45:53;27.20;99.90
7002;DHT22;3541;53.230;10.518;2023-06-26T09:48:20;27.20;99.90
7002;DHT22;3541;53.230;10.518;2023-06-26T09:50:47;27.40;99.90
7002;DHT22;3541;53.230;10.518;2023-06-26T09:53:15;27.40;99.90
7002;DHT22;3541;53.230;10.518;2023-06-26T09:55:44;27.40;99.90
7002;DHT22;3541;53.230;10.518;2023-06-26T09:58:11;27.50;99.90
7002;DHT22;3541;53.230;10.518;2023-06-26T10:00:41;27.60;99.90
7002;DHT22;3541;53.230;10.518;2023-06-26T10:03:08;27.70;99.90
7002;DHT22;3541;53.230;10.518;2023-06-26T10:05:35;27.60;99.90
7002;DHT22;3541;53.230;10.518;2023-06-26T10:08:04;27.50;99.90
7002;DHT22;3541;53.230;10.518;2023-06-26T10:10:32;27.50;99.90
7002;DHT22;3541;53.230;10.518;2023-06-26T10:13:03;27.50;99.90
7002;DHT22;3541;53.230;10.518;2023-06-26T10:15:31;27.40;99.90
7002;DHT22;3541;53.230;10.518;2023-06-26T10:17:59;27.20;99.90
7002;DHT22;3541;53.230;10.518;2023-06-26T10:20:26;27.10;99.90
7002;DHT22;3541;53.230;10.518;2023-06-26T10:22:54;27.00;99.90
7002;DHT22;3541;53.230;10.518;2023-06-26T10:25:23;27.00;99.90
7002;DHT22;3541;53.230;10.518;2023-06-26T10:27:53;27.10;99.90
7002;DHT22;3541;53.230;10.518;2023-06-26T10:30:24;27.00;99.90
7002;DHT22;3541;53.230;10.518;2023-06-26T10:32:54;26.90;99.90
7002;DHT22;3541;53.230;10.518;2023-06-26T10:35:23;27.00;99.90
7002;DHT22;3541;53.230;10.518;2023-06-26T10:37:50;27.10;99.90
7002;DHT22;3541;53.230;10.518;2023-06-26T10:40:22;27.20;99.90
7002;DHT22;3541;53.230;10.518;2023-06-26T10:42:51;27.10;99.90
7002;DHT22;3541;53.230;10.518;2023-06-26T10:45:20;26.90;99.90
7002;DHT22;3541;53.230;10.518;2023-06-26T10:47:48;26.70;99.90
7002;DHT22;3541;53.230;10.518;2023-06-26T10:50:24;26.50;99.90
7002;DHT22;3541;53.230;10.518;2023-06-26T10:53:15;26.30;99.90
7002;DHT22;3541;53.230;10.518;2023-06-26T10:55:48;26.00;99.90
7002;DHT22;3541;53.230;10.518;2023-06-26T10:58:32;25.90;99.90
7002;DHT22;3541;53.230;10.518;2023-06-26T11:01:16;25.50;99.90
7002;DHT22;3541;53.230;10.518;2023-06-26T11:03:45;25.00;99.90
7002;DHT22;3541;53.230;10.518;2023-06-26T11:06:15;24.50;99.90
7002;DHT22;3541;53.230;10.518;2023-06-26T11:08:45;24.00;99.90
7002;DHT22;3541;53.230;10.518;2023-06-26T11:11:12;23.30;99.90
7002;DHT22;3541;53.230;10.518;2023-06-26T11:13:39;23.10;99.90
7002;DHT22;3541;53.230;10.518;2023-06-26T11:16:06;22.80;99.90
7002;DHT22;3541;53.230;10.518;2023-06-26T11:18:33;22.10;99.90
7002;DHT22;3541;53.230;10.518;2023-06-26T11:21:05;21.90;99.90
7002;DHT22;3541;53.230;10.518;2023-06-26T11:23:35;21.90;99.90
7002;DHT22;3541;53.230;10.518;2023-06-26T11:26:16;21.80;99.90
7002;DHT22;3541;53.230;10.518;2023-06-26T11:28:47;21.50;99.90
7002;DHT22;3541;53.230;10.518;2023-06-26T11:31:27;21.70;99.90
7002;DHT22;3541;53.230;10.518;2023-06-26T11:33:55;21.70;99.90
7002;DHT22;3541;53.230;10.518;2023-06-26T11:36:23;21.70;99.90
7002;DHT22;3541;53.230;10.518;2023-06-26T11:38:54;21.90;99.90
7002;DHT22;3541;53.230;10.518;2023-06-26T11:41:22;22.00;99.90
7002;DHT22;3541;53.230;10.518;2023-06-26T11:43:50;22.00;99.90
7002;DHT22;3541;53.230;10.518;2023-06-26T11:46:19;22.10;99.90
7002;DHT22;3541;53.230;10.518;2023-06-26T11:48:45;22.30;99.90
7002;DHT22;3541;53.230;10.518;2023-06-26T11:51:13;22.40;99.90
7002;DHT22;3541;53.230;10.518;2023-06-26T11:53:41;22.30;99.90
7002;DHT22;3541;53.230;10.518;2023-06-26T11:56:10;22.10;99.90
7002;DHT22;3541;53.230;10.518;2023-06-26T11:58:36;22.10;99.90
7002;DHT22;3541;53.230;10.518;2023-06-26T12:01:03;22.10;99.90
7002;DHT22;3541;53.230;10.518;2023-06-26T12:03:32;22.10;99.90
7002;DHT22;3541;53.230;10.518;2023-06-26T12:05:58;22.20;99.90
7002;DHT22;3541;53.230;10.518;2023-06-26T12:08:26;22.10;99.90
7002;DHT22;3541;53.230;10.518;2023-06-26T12:10:53;22.20;99.90
7002;DHT22;3541;53.230;10.518;2023-06-26T12:13:21;22.40;99.90
7002;DHT22;3541;53.230;10.518;2023-06-26T12:15:48;22.40;99.90
7002;DHT22;3541;53.230;10.518;2023-06-26T12:18:15;22.60;99.90
7002;DHT22;3541;53.230;10.518;2023-06-26T12:20:42;22.60;99.90
7002;DHT22;3541;53.230;10.518;2023-06-26T12:23:12;22.50;99.90
7002;DHT22;3541;53.230;10.518;2023-06-26T12:25:39;22.40;99.90
7002;DHT22;3541;53.230;10.518;2023-06-26T12:28:15;22.60;99.90
7002;DHT22;3541;53.230;10.518;2023-06-26T12:30:47;22.70;99.90
7002;DHT22;3541;53.230;10.518;2023-06-26T12:33:14;22.60;99.90
7002;DHT22;3541;53.230;10.518;2023-06-26T12:35:41;22.70;99.90
7002;DHT22;3541;53.230;10.518;2023-06-26T12:38:08;22.90;99.90
7002;DHT22;3541;53.230;10.518;2023-06-26T12:40:35;23.10;99.90
7002;DHT22;3541;53.230;10.518;2023-06-26T12:43:11;23.10;99.90
7002;DHT22;3541;53.230;10.518;2023-06-26T12:45:38;23.30;99.90
7002;DHT22;3541;53.230;10.518;2023-06-26T12:48:12;23.60;99.90
7002;DHT22;3541;53.230;10.518;2023-06-26T12:50:43;23.60;99.90
7002;DHT22;3541;53.230;10.518;2023-06-26T12:53:11;23.60;99.90
7002;DHT22;3541;53.230;10.518;2023-06-26T12:55:37;23.50;99.90
7002;DHT22;3541;53.230;10.518;2023-06-26T12:58:04;23.60;99.90
7002;DHT22;3541;53.230;10.518;2023-06-26T13:00:30;23.80;99.90
7002;DHT22;3541;53.230;10.518;2023-06-26T13:02:59;23.80;99.90
7002;DHT22;3541;53.230;10.518;2023-06-26T13:05:27;23.80;99.90
7002;DHT22;3541;53.230;10.518;2023-06-26T13:07:53;23.60;99.90
7002;DHT22;3541;53.230;10.518;2023-06-26T13:10:20;23.70;99.90
7002;DHT22;3541;53.230;10.518;2023-06-26T13:12:47;23.60;99.90
7002;DHT22;3541;53.230;10.518;2023-06-26T13:15:14;23.70;99.90
7002;DHT22;3541;53.230;10.518;2023-06-26T13:17:40;23.80;99.90
7002;DHT22;3541;53.230;10.518;2023-06-26T13:20:08;23.80;99.90
7002;DHT22;3541;53.230;10.518;2023-06-26T13:22:36;24.00;99.90
7002;DHT22;3541;53.230;10.518;2023-06-26T13:25:03;24.20;99.90
7002;DHT22;3541;53.230;10.518;2023-06-26T13:27:30;24.40;99.90
7002;DHT22;3541;53.230;10.518;2023-06-26T13:29:57;24.50;99.90
7002;DHT22;3541;53.230;10.518;2023-06-26T13:32:23;24.60;99.90
7002;DHT22;3541;53.230;10.518;2023-06-26T13:34:50;24.70;99.90
7002;DHT22;3541;53.230;10.518;2023-06-26T13:37:17;24.50;99.90
7002;DHT22;3541;53.230;10.518;2023-06-26T13:39:45;24.30;99.90
7002;DHT22;3541;53.230;10.518;2023-06-26T13:42:15;24.10;99.90
7002;DHT22;3541;53.230;10.518;2023-06-26T13:44:41;24.20;99.90
7002;DHT22;3541;53.230;10.518;2023-06-26T13:47:09;24.10;99.90
7002;DHT22;3541;53.230;10.518;2023-06-26T13:49:36;24.00;99.90
7002;DHT22;3541;53.230;10.518;2023-06-26T13:52:03;24.10;99.90
7002;DHT22;3541;53.230;10.518;2023-06-26T13:54:30;24.20;99.90
7002;DHT22;3541;53.230;10.518;2023-06-26T13:56:58;24.30;99.90
7002;DHT22;3541;53.230;10.518;2023-06-26T13:59:27;24.20;99.90
7002;DHT22;3541;53.230;10.518;2023-06-26T14:01:54;24.40;99.90
7002;DHT22;3541;53.230;10.518;2023-06-26T14:04:20;24.40;99.90
7002;DHT22;3541;53.230;10.518;2023-06-26T14:06:47;24.40;99.90
7002;DHT22;3541;53.230;10.518;2023-06-26T14:09:14;24.50;99.90
7002;DHT22;3541;53.230;10.518;2023-06-26T14:11:41;24.60;99.90
7002;DHT22;3541;53.230;10.518;2023-06-26T14:14:08;24.90;99.90
7002;DHT22;3541;53.230;10.518;2023-06-26T14:16:35;24.80;99.90
7002;DHT22;3541;53.230;10.518;2023-06-26T14:19:02;24.60;99.90
7002;DHT22;3541;53.230;10.518;2023-06-26T14:21:30;24.40;99.90
7002;DHT22;3541;53.230;10.518;2023-06-26T14:23:56;24.40;99.90
7002;DHT22;3541;53.230;10.518;2023-06-26T14:26:23;24.40;99.90
7002;DHT22;3541;53.230;10.518;2023-06-26T14:28:49;24.30;99.90
7002;DHT22;3541;53.230;10.518;2023-06-26T14:31:17;24.40;99.90
7002;DHT22;3541;53.230;10.518;2023-06-26T14:33:44;24.20;99.90
7002;DHT22;3541;53.230;10.518;2023-06-26T14:36:11;24.10;99.90
7002;DHT22;3541;53.230;10.518;2023-06-26T14:38:37;24.10;99.90
7002;DHT22;3541;53.230;10.518;2023-06-26T14:41:04;24.10;99.90
7002;DHT22;3541;53.230;10.518;2023-06-26T14:43:30;24.00;99.90
7002;DHT22;3541;53.230;10.518;2023-06-26T14:45:57;23.90;99.90
7002;DHT22;3541;53.230;10.518;2023-06-26T14:48:25;24.00;99.90
7002;DHT22;3541;53.230;10.518;2023-06-26T14:50:51;24.30;99.90
7002;DHT22;3541;53.230;10.518;2023-06-26T14:53:18;24.50;99.90
7002;DHT22;3541;53.230;10.518;2023-06-26T14:55:45;24.90;99.90
7002;DHT22;3541;53.230;10.518;2023-06-26T14:58:12;24.90;99.90
7002;DHT22;3541;53.230;10.518;2023-06-26T15:00:38;24.80;99.90
7002;DHT22;3541;53.230;10.518;2023-06-26T15:03:05;24.70;99.90
7002;DHT22;3541;53.230;10.518;2023-06-26T15:05:33;24.60;99.90
7002;DHT22;3541;53.230;10.518;2023-06-26T15:07:59;24.50;99.90
7002;DHT22;3541;53.230;10.518;2023-06-26T15:10:26;24.50;99.90
7002;DHT22;3541;53.230;10.518;2023-06-26T15:12:52;24.70;99.90
7002;DHT22;3541;53.230;10.518;2023-06-26T15:15:19;24.80;99.90
7002;DHT22;3541;53.230;10.518;2023-06-26T15:17:47;24.60;99.90
7002;DHT22;3541;53.230;10.518;2023-06-26T15:20:14;24.40;99.90
7002;DHT22;3541;53.230;10.518;2023-06-26T15:22:44;24.40;99.90
7002;DHT22;3541;53.230;10.518;2023-06-26T15:25:10;24.70;99.90
7002;DHT22;3541;53.230;10.518;2023-06-26T15:27:37;24.80;99.90
7002;DHT22;3541;53.230;10.518;2023-06-26T15:30:05;24.60;99.90
7002;DHT22;3541;53.230;10.518;2023-06-26T15:32:32;24.40;99.90
7002;DHT22;3541;53.230;10.518;2023-06-26T15:34:59;24.40;99.90
7002;DHT22;3541;53.230;10.518;2023-06-26T15:37:26;24.20;99.90
7002;DHT22;3541;53.230;10.518;2023-06-26T15:39:54;24.50;99.90
7002;DHT22;3541;53.230;10.518;2023-06-26T15:42:20;24.70;99.90
7002;DHT22;3541;53.230;10.518;2023-06-26T15:44:47;24.60;99.90
7002;DHT22;3541;53.230;10.518;2023-06-26T15:47:14;24.40;99.90